Time;durP1;ratioP1;P1;durP2;ratioP2;P2;SDS_P1;SDS_P2;PMS_P1;PMS_P2;Temp;Humidity;BMP_temperature;BMP_pressure;BME280_temperature;BME280_humidity;BME280_pressure;Samples;Min_cycle;Max_cycle;Signal;HPM_P1;HPM_P2
2023/01/09 00:02:11;;;;;;;;;;;;;;;4.17;100.00;97801.84;4298859;33;19963;-74
2023/01/09 00:04:37;;;;;;;;;;;;;;;3.86;100.00;97798.59;4299824;33;19956;-73
2023/01/09 00:07:03;;;;;;;;;;;;;;;3.84;100.00;97808.66;4309395;33;19991;-72
2023/01/09 00:09:30;;;;;;;;;;;;;;;4.05;100.00;97801.06;4296007;33;19965;-73
2023/01/09 00:11:56;;;;;;;;;;;;;;;4.06;100.00;97789.38;4297222;33;20359;-73
2023/01/09 00:14:23;;;;;;;;;;;;;;;3.85;100.00;97789.00;4297840;33;19998;-73
2023/01/09 00:16:49;;;;;;;;;;;;;;;4.21;100.00;97779.00;4297154;33;19955;-73
2023/01/09 00:19:15;;;;;;;;;;;;;;;4.18;100.00;97766.19;4293702;33;20291;-74
2023/01/09 00:21:41;;;;;;;;;;;;;;;3.98;100.00;97767.41;4297538;33;20094;-74
2023/01/09 00:24:08;;;;;;;;;;;;;;;4.21;100.00;97760.34;4297571;33;20058;-74
2023/01/09 00:26:34;;;;;;;;;;;;;;;3.99;100.00;97763.69;4296970;33;19969;-74
2023/01/09 00:29:02;;;;;;;;;;;;;;;3.95;100.00;97757.22;4295165;33;19945;-72
2023/01/09 00:31:28;;;;;;;;;;;;;;;3.86;100.00;97748.00;4288332;33;19966;-74
2023/01/09 00:33:55;;;;;;;;;;;;;;;4.18;100.00;97747.53;4293383;33;20023;-74
2023/01/09 00:36:21;;;;;;;;;;;;;;;4.11;100.00;97744.19;4297458;33;19949;-74
2023/01/09 00:38:47;;;;;;;;;;;;;;;4.15;100.00;97754.13;4297215;33;19953;-73
2023/01/09 00:41:16;;;;;;;;;;;;;;;4.08;100.00;97768.63;4307297;33;19970;-72
2023/01/09 00:43:44;;;;;;;;;;;;;;;4.25;100.00;97761.50;4309662;33;19988;-73
2023/01/09 00:46:11;;;;;;;;;;;;;;;4.39;100.00;97753.19;4306104;33;20039;-74
2023/01/09 00:48:39;;;;;;;;;;;;;;;4.28;100.00;97769.00;4313176;33;19962;-73
2023/01/09 00:51:07;;;;;;;;;;;;;;;4.60;100.00;97757.81;4313316;33;19966;-73
2023/01/09 00:53:34;;;;;;;;;;;;;;;4.32;100.00;97759.50;4311850;33;20311;-73
2023/01/09 00:56:02;;;;;;;;;;;;;;;4.15;100.00;97756.78;4310014;33;19961;-73
2023/01/09 00:58:28;;;;;;;;;;;;;;;4.50;100.00;97762.97;4299172;33;19958;-73
2023/01/09 03:01:16;;;;;;;;;;;;;;;4.57;100.00;97681.00;4817200;27;20252;-74
2023/01/09 03:03:58;;;;;;;;;;;;;;;4.68;100.00;97674.75;4314505;33;19961;-73
2023/01/09 03:06:24;;;;;;;;;;;;;;;4.69;100.00;97670.22;4316855;33;20347;-74
2023/01/09 03:08:53;;;;;;;;;;;;;;;4.67;100.00;97664.31;4305883;33;19982;-74
2023/01/09 03:11:20;;;;;;;;;;;;;;;4.73;100.00;97661.47;4309261;33;20090;-74
2023/01/09 03:13:50;;;;;;;;;;;;;;;4.42;100.00;97654.09;4306940;33;20038;-73
2023/01/09 03:16:19;;;;;;;;;;;;;;;4.64;100.00;97654.16;4309411;33;19970;-74
2023/01/09 03:18:47;;;;;;;;;;;;;;;4.71;100.00;97642.28;4309740;33;19962;-74
2023/01/09 03:21:14;;;;;;;;;;;;;;;4.64;100.00;97641.66;4308636;33;19940;-75
2023/01/09 03:23:46;;;;;;;;;;;;;;;4.39;100.00;97638.59;4303880;33;19970;-74
2023/01/09 03:26:12;;;;;;;;;;;;;;;4.46;100.00;97652.56;4294756;33;19956;-74
2023/01/09 03:28:38;;;;;;;;;;;;;;;4.40;100.00;97640.22;4295302;33;19966;-73
2023/01/09 03:31:05;;;;;;;;;;;;;;;4.49;100.00;97638.75;4281433;33;20082;-74
2023/01/09 03:33:37;;;;;;;;;;;;;;;4.50;100.00;97640.34;4291037;33;19953;-74
2023/01/09 03:36:03;;;;;;;;;;;;;;;4.37;100.00;97636.16;4294590;33;19949;-74
2023/01/09 03:38:30;;;;;;;;;;;;;;;4.39;100.00;97639.41;4294842;33;19957;-74
2023/01/09 03:40:56;;;;;;;;;;;;;;;4.30;100.00;97644.31;4295014;33;19955;-73
2023/01/09 03:43:22;;;;;;;;;;;;;;;4.09;100.00;97640.53;4294641;33;19949;-73
2023/01/09 03:45:48;;;;;;;;;;;;;;;4.23;100.00;97651.69;4292891;33;19941;-72
2023/01/09 03:48:14;;;;;;;;;;;;;;;4.07;100.00;97641.81;4294923;33;19971;-73
2023/01/09 03:50:44;;;;;;;;;;;;;;;4.28;100.00;97637.66;4299896;33;20375;-74
2023/01/09 03:53:12;;;;;;;;;;;;;;;4.02;100.00;97639.06;4295222;33;20054;-74
2023/01/09 03:55:38;;;;;;;;;;;;;;;4.11;100.00;97645.63;4293395;33;20349;-72
2023/01/09 03:58:11;;;;;;;;;;;;;;;4.19;100.00;97632.69;4294377;33;19957;-74
2023/01/09 04:00:39;;;;;;;;;;;;;;;4.37;100.00;97638.81;4294729;33;20007;-74
2023/01/09 04:03:06;;;;;;;;;;;;;;;4.42;100.00;97633.59;4294517;33;19983;-74
2023/01/09 04:05:32;;;;;;;;;;;;;;;4.42;100.00;97643.44;4266237;33;20342;-75
2023/01/09 04:08:05;;;;;;;;;;;;;;;4.05;100.00;97633.25;4266430;33;19959;-75
2023/01/09 04:10:31;;;;;;;;;;;;;;;4.09;100.00;97629.09;4280290;33;19989;-75
2023/01/09 04:12:57;;;;;;;;;;;;;;;3.96;100.00;97620.34;4278853;33;19949;-75
2023/01/09 04:15:24;;;;;;;;;;;;;;;4.11;100.00;97632.31;4266786;33;19956;-75
2023/01/09 04:17:50;;;;;;;;;;;;;;;4.20;100.00;97628.19;4275081;33;19949;-73
2023/01/09 04:20:17;;;;;;;;;;;;;;;4.17;100.00;97610.81;4279852;33;19973;-75
2023/01/09 04:22:43;;;;;;;;;;;;;;;4.22;100.00;97612.75;4280510;33;19942;-75
2023/01/09 04:25:10;;;;;;;;;;;;;;;4.13;100.00;97616.88;4280722;33;19950;-75
2023/01/09 04:27:36;;;;;;;;;;;;;;;4.10;100.00;97625.34;4276208;33;19977;-75
2023/01/09 04:30:02;;;;;;;;;;;;;;;4.30;100.00;97619.53;4258861;33;19946;-74
2023/01/09 04:32:29;;;;;;;;;;;;;;;4.07;100.00;97616.00;4262138;33;19962;-75
2023/01/09 04:34:55;;;;;;;;;;;;;;;4.32;100.00;97612.94;4259715;33;20008;-74
2023/01/09 04:37:22;;;;;;;;;;;;;;;4.15;100.00;97612.12;4265130;33;19963;-75
2023/01/09 04:39:49;;;;;;;;;;;;;;;4.27;100.00;97604.84;4288621;33;19934;-73
2023/01/09 04:42:15;;;;;;;;;;;;;;;3.89;100.00;97537.13;4286612;33;20716;-75
2023/01/09 04:44:41;;;;;;;;;;;;;;;4.21;100.00;97595.16;4281595;33;19960;-75
2023/01/09 04:47:07;;;;;;;;;;;;;;;4.17;100.00;97600.16;4268166;33;20312;-74
2023/01/09 04:49:33;;;;;;;;;;;;;;;4.45;100.00;97601.13;4268305;33;19993;-75
2023/01/09 04:52:00;;;;;;;;;;;;;;;4.27;100.00;97599.50;4275634;33;19952;-74
2023/01/09 04:54:26;;;;;;;;;;;;;;;4.05;100.00;97602.09;4292211;33;19952;-74
2023/01/09 04:56:52;;;;;;;;;;;;;;;4.22;100.00;97596.78;4296754;33;20342;-75
2023/01/09 04:59:18;;;;;;;;;;;;;;;4.31;100.00;97595.31;4292754;33;19952;-74
2023/01/09 05:01:45;;;;;;;;;;;;;;;3.89;100.00;97587.72;4296092;33;19967;-73
2023/01/09 05:04:11;;;;;;;;;;;;;;;3.93;100.00;97583.56;4295427;33;19944;-74
2023/01/09 05:06:38;;;;;;;;;;;;;;;4.14;100.00;97578.53;4296703;33;19981;-74
2023/01/09 05:09:04;;;;;;;;;;;;;;;3.75;100.00;97573.12;4296212;33;20308;-74
2023/01/09 05:11:30;;;;;;;;;;;;;;;4.08;100.00;97572.31;4294550;33;19972;-74
2023/01/09 05:13:56;;;;;;;;;;;;;;;3.79;100.00;97563.63;4294698;33;20311;-72
2023/01/09 05:16:23;;;;;;;;;;;;;;;3.89;100.00;97571.75;4295544;33;19949;-75
2023/01/09 05:18:49;;;;;;;;;;;;;;;3.70;100.00;97570.37;4308062;33;19941;-75
2023/01/09 05:21:15;;;;;;;;;;;;;;;4.09;100.00;97563.28;4311228;33;20278;-74
2023/01/09 05:23:41;;;;;;;;;;;;;;;3.89;100.00;97569.09;4310875;33;19940;-74
2023/01/09 05:26:08;;;;;;;;;;;;;;;4.02;100.00;97564.50;4314498;33;19974;-73
2023/01/09 05:28:34;;;;;;;;;;;;;;;4.06;100.00;97573.62;4294606;33;19949;-75
2023/01/09 05:31:00;;;;;;;;;;;;;;;3.78;100.00;97564.66;4267524;33;20383;-74
2023/01/09 05:33:26;;;;;;;;;;;;;;;3.82;100.00;97573.78;4267760;33;20036;-74
2023/01/09 05:35:53;;;;;;;;;;;;;;;4.06;100.00;97566.44;4267883;33;19954;-74
2023/01/09 05:38:20;;;;;;;;;;;;;;;3.95;100.00;97559.34;4271703;33;19948;-73
2023/01/09 05:40:47;;;;;;;;;;;;;;;3.68;100.00;97548.53;4253250;33;20431;-74
2023/01/09 05:43:13;;;;;;;;;;;;;;;3.87;100.00;97547.22;4253424;33;19949;-74
2023/01/09 05:45:40;;;;;;;;;;;;;;;4.04;100.00;97562.37;4253726;33;19946;-74
2023/01/09 05:48:07;;;;;;;;;;;;;;;4.07;100.00;97553.91;4255133;33;20069;-76
2023/01/09 05:50:38;;;;;;;;;;;;;;;3.79;100.00;97550.31;4238188;33;19960;-74
2023/01/09 05:53:05;;;;;;;;;;;;;;;3.91;100.00;97553.69;4238869;33;20357;-75
2023/01/09 05:55:35;;;;;;;;;;;;;;;4.02;100.00;97548.50;4239819;33;20003;-74
2023/01/09 05:58:04;;;;;;;;;;;;;;;3.98;100.00;97546.34;4254494;33;19960;-74
2023/01/09 06:00:48;;;;;;;;;;;;;;;3.78;100.00;97535.38;4266422;33;20279;-75
2023/01/09 06:03:18;;;;;;;;;;;;;;;3.87;100.00;97539.25;4280635;33;20095;-74
2023/01/09 06:05:44;;;;;;;;;;;;;;;3.90;100.00;97544.09;4280321;33;19945;-75
2023/01/09 06:08:10;;;;;;;;;;;;;;;3.92;100.00;97541.97;4265223;33;19968;-74
2023/01/09 06:10:37;;;;;;;;;;;;;;;3.82;100.00;97539.97;4281278;33;20032;-73
2023/01/09 06:13:04;;;;;;;;;;;;;;;3.87;100.00;97541.09;4298150;33;20328;-74
2023/01/09 06:15:32;;;;;;;;;;;;;;;4.00;100.00;97530.94;4302391;33;20357;-74
2023/01/09 06:17:59;;;;;;;;;;;;;;;4.06;100.00;97536.34;4300427;33;19948;-72
2023/01/09 06:20:25;;;;;;;;;;;;;;;4.11;100.00;97531.87;4295769;33;19945;-73
2023/01/09 06:22:52;;;;;;;;;;;;;;;4.03;100.00;97534.16;4294598;33;20281;-73
2023/01/09 06:25:18;;;;;;;;;;;;;;;3.96;100.00;97532.47;4295708;33;20331;-74
2023/01/09 06:27:44;;;;;;;;;;;;;;;4.17;100.00;97511.47;4294859;33;19949;-74
2023/01/09 06:30:11;;;;;;;;;;;;;;;3.90;100.00;97522.78;4293880;33;20423;-75
2023/01/09 06:32:37;;;;;;;;;;;;;;;4.32;100.00;97517.00;4303718;33;20448;-74
2023/01/09 06:35:04;;;;;;;;;;;;;;;4.17;100.00;97514.13;4297581;33;20080;-74
2023/01/09 06:37:30;;;;;;;;;;;;;;;4.25;100.00;97513.69;4295184;33;20072;-75
2023/01/09 06:39:56;;;;;;;;;;;;;;;4.19;100.00;97514.69;4297361;33;19941;-73
2023/01/09 06:42:22;;;;;;;;;;;;;;;4.19;100.00;97512.81;4302923;33;19991;-74
2023/01/09 06:44:49;;;;;;;;;;;;;;;4.00;100.00;97509.63;4309935;33;20017;-74
2023/01/09 06:47:15;;;;;;;;;;;;;;;3.96;100.00;97513.81;4307865;33;19936;-74
2023/01/09 06:49:41;;;;;;;;;;;;;;;4.04;100.00;97501.13;4299689;33;19949;-74
2023/01/09 06:52:07;;;;;;;;;;;;;;;3.94;100.00;97502.63;4296263;33;19984;-73
2023/01/09 06:54:34;;;;;;;;;;;;;;;3.85;100.00;97506.75;4294825;33;19948;-74
2023/01/09 06:57:00;;;;;;;;;;;;;;;4.03;100.00;97495.00;4296767;33;19949;-74
2023/01/09 06:59:26;;;;;;;;;;;;;;;3.67;100.00;97502.47;4304733;33;20616;-74
2023/01/09 07:01:53;;;;;;;;;;;;;;;3.88;100.00;97503.59;4318329;33;19956;-73
2023/01/09 07:04:20;;;;;;;;;;;;;;;3.76;100.00;97492.22;4325005;33;19943;-73
2023/01/09 07:06:47;;;;;;;;;;;;;;;3.94;100.00;97494.63;4326052;33;20352;-73
2023/01/09 07:09:14;;;;;;;;;;;;;;;4.23;100.00;97497.16;4326579;33;20291;-74
2023/01/09 07:11:40;;;;;;;;;;;;;;;4.06;100.00;97499.84;4325816;33;19954;-74
2023/01/09 07:14:06;;;;;;;;;;;;;;;4.04;100.00;97498.47;4326610;33;20005;-74
2023/01/09 07:16:33;;;;;;;;;;;;;;;4.36;100.00;97496.78;4303453;33;20052;-73
2023/01/09 07:18:59;;;;;;;;;;;;;;;4.09;100.00;97495.91;4307935;33;19959;-73
2023/01/09 07:21:25;;;;;;;;;;;;;;;3.92;100.00;97491.38;4302470;33;20529;-73
2023/01/09 07:23:51;;;;;;;;;;;;;;;4.06;100.00;97496.38;4299881;33;20259;-74
2023/01/09 07:26:17;;;;;;;;;;;;;;;4.07;100.00;97492.66;4301750;33;19975;-73
2023/01/09 07:28:44;;;;;;;;;;;;;;;3.99;100.00;97486.72;4271346;33;20226;-73
2023/01/09 07:31:10;;;;;;;;;;;;;;;4.17;100.00;97487.47;4272848;33;20000;-73
2023/01/09 07:33:36;;;;;;;;;;;;;;;4.16;100.00;97480.53;4272321;33;20061;-74
2023/01/09 07:36:02;;;;;;;;;;;;;;;4.21;100.00;97477.94;4273028;33;19952;-74
2023/01/09 07:38:29;;;;;;;;;;;;;;;4.31;100.00;97488.72;4269045;33;20254;-73
2023/01/09 07:40:55;;;;;;;;;;;;;;;4.33;100.00;97497.28;4263064;33;19964;-72
2023/01/09 07:43:21;;;;;;;;;;;;;;;4.49;100.00;97484.16;4266366;33;19964;-73
2023/01/09 07:45:47;;;;;;;;;;;;;;;4.36;100.00;97486.13;4266059;33;20281;-72
2023/01/09 07:48:14;;;;;;;;;;;;;;;4.33;100.00;97486.63;4270645;33;19963;-73
2023/01/09 07:50:40;;;;;;;;;;;;;;;4.42;100.00;97487.00;4271670;33;19961;-74
2023/01/09 07:53:06;;;;;;;;;;;;;;;4.48;100.00;97494.03;4274656;33;20341;-74
2023/01/09 07:55:32;;;;;;;;;;;;;;;4.49;100.00;97494.81;4273481;33;20058;-74
2023/01/09 07:57:58;;;;;;;;;;;;;;;4.38;100.00;97493.87;4271318;33;19949;-74
2023/01/09 08:00:25;;;;;;;;;;;;;;;4.26;100.00;97491.34;4291275;33;19944;-73
2023/01/09 08:02:52;;;;;;;;;;;;;;;4.28;100.00;97494.56;4300734;33;19963;-74
2023/01/09 08:05:18;;;;;;;;;;;;;;;4.28;100.00;97483.91;4298788;33;19967;-75
2023/01/09 08:07:44;;;;;;;;;;;;;;;4.53;100.00;97480.75;4294627;33;20380;-74
2023/01/09 08:10:11;;;;;;;;;;;;;;;4.52;100.00;97462.34;4294682;33;19942;-74
2023/01/09 08:12:41;;;;;;;;;;;;;;;4.49;100.00;97479.63;4291681;33;19998;-73
2023/01/09 08:15:07;;;;;;;;;;;;;;;4.53;100.00;97471.94;4266902;33;20048;-74
2023/01/09 08:17:33;;;;;;;;;;;;;;;4.58;100.00;97465.84;4280383;33;20018;-74
2023/01/09 08:19:59;;;;;;;;;;;;;;;4.56;100.00;97468.78;4283138;33;19964;-74
2023/01/09 08:22:25;;;;;;;;;;;;;;;4.54;100.00;97476.22;4281591;33;19945;-73
2023/01/09 08:24:52;;;;;;;;;;;;;;;4.78;100.00;97465.28;4282610;33;19944;-74
2023/01/09 08:27:18;;;;;;;;;;;;;;;4.65;100.00;97461.94;4282530;33;19942;-74
2023/01/09 08:29:44;;;;;;;;;;;;;;;4.83;100.00;97462.66;4270823;33;19941;-73
2023/01/09 08:32:10;;;;;;;;;;;;;;;4.82;100.00;97467.22;4267325;33;19942;-74
2023/01/09 08:34:36;;;;;;;;;;;;;;;4.72;100.00;97462.56;4263200;33;20024;-73
2023/01/09 08:37:03;;;;;;;;;;;;;;;4.70;100.00;97456.66;4267044;33;20208;-73
2023/01/09 08:39:29;;;;;;;;;;;;;;;5.12;100.00;97460.53;4239903;33;19952;-73
2023/01/09 08:47:26;;;;;;;;;;;;;;;5.04;100.00;97456.50;4239789;33;20002;-74
2023/01/09 08:49:52;;;;;;;;;;;;;;;4.99;100.00;97460.97;4238826;33;20065;-74
2023/01/09 08:52:18;;;;;;;;;;;;;;;5.01;100.00;97459.66;4256271;33;19957;-73
2023/01/09 08:54:44;;;;;;;;;;;;;;;4.94;100.00;97452.91;4268196;33;20001;-73
2023/01/09 08:57:11;;;;;;;;;;;;;;;4.90;100.00;97463.28;4267686;33;19941;-73
2023/01/09 08:59:37;;;;;;;;;;;;;;;4.80;100.00;97469.31;4268055;33;20379;-73
2023/01/09 09:02:03;;;;;;;;;;;;;;;4.73;100.00;97469.50;4267570;33;19963;-74
2023/01/09 09:04:29;;;;;;;;;;;;;;;4.92;100.00;97463.84;4265898;33;19949;-72
2023/01/09 09:06:56;;;;;;;;;;;;;;;4.96;100.00;97462.25;4225652;33;19958;-74
2023/01/09 09:09:22;;;;;;;;;;;;;;;4.93;100.00;97473.47;4225856;33;20077;-73
2023/01/09 09:11:48;;;;;;;;;;;;;;;4.93;100.00;97468.13;4224510;33;19951;-73
2023/01/09 09:17:00;;;;;;;;;;;;;;;4.88;100.00;97471.53;4233383;33;20329;-73
2023/01/09 09:19:26;;;;;;;;;;;;;;;4.87;100.00;97477.13;4253140;33;19942;-74
2023/01/09 09:21:52;;;;;;;;;;;;;;;4.78;100.00;97473.28;4252537;33;19953;-74
2023/01/09 09:24:18;;;;;;;;;;;;;;;4.63;100.00;97466.72;4264071;33;19983;-76
2023/01/09 09:26:45;;;;;;;;;;;;;;;4.95;100.00;97460.66;4266972;33;19960;-76
2023/01/09 09:32:00;;;;;;;;;;;;;;;4.76;100.00;97459.41;4274813;33;19945;-75
2023/01/09 09:34:26;;;;;;;;;;;;;;;4.68;100.00;97456.13;4273037;33;20311;-76
2023/01/09 09:36:52;;;;;;;;;;;;;;;4.80;100.00;97452.50;4273397;33;20015;-76
2023/01/09 09:39:18;;;;;;;;;;;;;;;4.90;100.00;97452.63;4282178;33;19952;-75
2023/01/09 09:45:18;;;;;;;;;;;;;;;4.93;100.00;97443.28;4266581;33;19934;-78
2023/01/09 09:47:59;;;;;;;;;;;;;;;4.89;100.00;97435.00;4264356;33;19983;-76
2023/01/09 09:50:40;;;;;;;;;;;;;;;5.11;100.00;97426.16;4270907;33;20075;-74
2023/01/09 09:53:14;;;;;;;;;;;;;;;5.16;100.00;97412.84;4274874;33;19953;-74
2023/01/09 09:55:44;;;;;;;;;;;;;;;5.15;100.00;97416.56;4274468;33;19959;-74
2023/01/09 09:58:22;;;;;;;;;;;;;;;5.03;100.00;97409.53;4271219;33;19954;-75
2023/01/09 10:00:50;;;;;;;;;;;;;;;5.52;100.00;97413.09;4279036;33;20020;-75
2023/01/09 10:03:51;;;;;;;;;;;;;;;5.20;100.00;97413.94;4269672;33;20281;-75
2023/01/09 10:06:21;;;;;;;;;;;;;;;5.20;100.00;97408.59;4259755;33;19951;-75
2023/01/09 10:09:10;;;;;;;;;;;;;;;5.22;100.00;97409.97;4261989;33;19942;-75
2023/01/09 10:11:53;;;;;;;;;;;;;;;5.50;100.00;97393.87;4249890;33;19960;-74
2023/01/09 10:14:21;;;;;;;;;;;;;;;5.27;100.00;97398.53;4266959;33;20259;-75
2023/01/09 10:16:56;;;;;;;;;;;;;;;5.29;100.00;97396.41;4267358;33;19938;-75
2023/01/09 10:19:41;;;;;;;;;;;;;;;5.62;100.00;97386.50;4265076;33;19991;-73
2023/01/09 10:22:09;;;;;;;;;;;;;;;5.31;100.00;97383.59;4266485;33;19949;-75
2023/01/09 10:24:53;;;;;;;;;;;;;;;5.51;100.00;97376.81;4265876;33;19961;-74
2023/01/09 10:27:48;;;;;;;;;;;;;;;5.72;100.00;97373.19;4238141;33;19946;-75
2023/01/09 10:30:33;;;;;;;;;;;;;;;5.68;100.00;97376.63;4188091;33;19955;-74
2023/01/09 10:33:08;;;;;;;;;;;;;;;5.68;100.00;97369.44;4224475;33;19935;-74
2023/01/09 10:35:46;;;;;;;;;;;;;;;5.59;100.00;97365.63;4224537;33;20258;-74
2023/01/09 10:38:19;;;;;;;;;;;;;;;5.61;100.00;97366.97;4222870;33;20461;-76
2023/01/09 10:41:14;;;;;;;;;;;;;;;5.64;100.00;97360.31;4231790;33;19954;-75
2023/01/09 10:43:50;;;;;;;;;;;;;;;5.63;100.00;97353.38;4255129;33;19942;-73
2023/01/09 10:46:25;;;;;;;;;;;;;;;5.79;100.00;97341.72;4266881;33;19968;-74
2023/01/09 10:48:55;;;;;;;;;;;;;;;6.01;100.00;97338.09;4252476;33;19956;-75
2023/01/09 10:51:26;;;;;;;;;;;;;;;5.99;100.00;97342.91;4249908;33;19958;-73
2023/01/09 10:53:54;;;;;;;;;;;;;;;5.93;100.00;97333.22;4252166;33;19957;-75
2023/01/09 10:56:27;;;;;;;;;;;;;;;5.73;100.00;97329.41;4251619;33;19949;-75
2023/01/09 10:58:54;;;;;;;;;;;;;;;5.87;100.00;97326.25;4272230;33;20277;-75
2023/01/09 11:01:31;;;;;;;;;;;;;;;5.75;100.00;97321.94;4280201;33;20057;-75
2023/01/09 11:03:58;;;;;;;;;;;;;;;5.84;100.00;97306.22;4266369;33;19963;-75
2023/01/09 11:06:28;;;;;;;;;;;;;;;6.11;100.00;97299.91;4266579;33;20006;-75
2023/01/09 11:08:58;;;;;;;;;;;;;;;6.12;100.00;97299.66;4266642;33;19945;-75
2023/01/09 11:11:34;;;;;;;;;;;;;;;6.21;100.00;97304.47;4262808;33;19956;-75
2023/01/09 11:14:03;;;;;;;;;;;;;;;6.12;100.00;97296.97;4266158;33;19979;-75
2023/01/09 11:16:30;;;;;;;;;;;;;;;6.20;100.00;97294.87;4248156;33;19942;-75
2023/01/09 11:18:59;;;;;;;;;;;;;;;6.00;100.00;97285.75;4253951;33;19953;-74
2023/01/09 11:21:37;;;;;;;;;;;;;;;6.20;100.00;97297.53;4281228;33;19963;-75
2023/01/09 11:24:21;;;;;;;;;;;;;;;6.08;100.00;97295.91;4294899;33;19949;-75
2023/01/09 11:27:13;;;;;;;;;;;;;;;6.18;100.00;97284.44;4281207;33;19968;-75
2023/01/09 11:29:41;;;;;;;;;;;;;;;6.12;100.00;97298.84;4280780;33;20008;-74
2023/01/09 11:32:34;;;;;;;;;;;;;;;6.20;100.00;97293.00;4292716;33;19984;-74
2023/01/09 11:35:05;;;;;;;;;;;;;;;6.27;100.00;97296.22;4297944;33;19944;-74
2023/01/09 11:37:33;;;;;;;;;;;;;;;6.51;100.00;97293.84;4307648;33;20361;-74
2023/01/09 11:40:03;;;;;;;;;;;;;;;6.61;100.00;97265.53;4309516;33;19976;-75
2023/01/09 11:42:50;;;;;;;;;;;;;;;6.81;100.00;97292.28;4309408;33;19941;-75
2023/01/09 11:45:24;;;;;;;;;;;;;;;7.09;100.00;97292.78;4309831;33;19945;-75
2023/01/09 11:47:52;;;;;;;;;;;;;;;6.89;100.00;97288.25;4310109;33;19952;-74
2023/01/09 11:50:24;;;;;;;;;;;;;;;7.09;100.00;97298.16;4302188;33;20413;-75
2023/01/09 11:53:12;;;;;;;;;;;;;;;7.17;100.00;97278.06;4303727;33;19949;-75
2023/01/09 11:55:39;;;;;;;;;;;;;;;6.95;100.00;97286.38;4306804;33;20206;-75
2023/01/09 11:58:12;;;;;;;;;;;;;;;7.38;100.00;97281.50;4290669;33;19941;-75
2023/01/09 12:03:34;;;;;;;;;;;;;;;7.62;100.00;97285.16;4276338;33;19995;-74
2023/01/09 12:06:00;;;;;;;;;;;;;;;7.63;100.00;97270.72;4276269;33;19941;-74
2023/01/09 12:08:53;;;;;;;;;;;;;;;7.50;100.00;97282.00;4279449;33;19947;-73
2023/01/09 12:11:38;;;;;;;;;;;;;;;7.56;100.00;97275.56;4279916;33;19950;-73
2023/01/09 12:14:13;;;;;;;;;;;;;;;7.36;100.00;97278.31;4297598;33;19953;-73
2023/01/09 12:16:58;;;;;;;;;;;;;;;7.42;100.00;97279.91;4273946;33;20104;-73
2023/01/09 12:19:41;;;;;;;;;;;;;;;7.32;100.00;97277.22;4279903;33;19955;-73
2023/01/09 12:22:18;;;;;;;;;;;;;;;7.27;100.00;97278.03;4287879;33;19957;-73
2023/01/09 12:24:52;;;;;;;;;;;;;;;7.38;100.00;97284.19;4288205;33;19953;-73
2023/01/09 12:27:21;;;;;;;;;;;;;;;7.35;100.00;97279.34;4289099;33;19976;-73
2023/01/09 12:30:03;;;;;;;;;;;;;;;7.51;100.00;97272.87;4295281;33;19979;-73
2023/01/09 12:32:29;;;;;;;;;;;;;;;7.35;100.00;97268.66;4296658;33;20314;-73
2023/01/09 12:35:05;;;;;;;;;;;;;;;7.15;100.00;97281.00;4295835;33;19961;-73
2023/01/09 12:37:48;;;;;;;;;;;;;;;7.15;100.00;97275.66;4295876;33;19945;-73
2023/01/09 12:40:15;;;;;;;;;;;;;;;7.41;100.00;97267.56;4295102;33;19953;-73
2023/01/09 12:42:56;;;;;;;;;;;;;;;7.31;100.00;97272.94;4267529;33;20383;-73
2023/01/09 12:45:32;;;;;;;;;;;;;;;7.20;100.00;97272.97;4271801;33;20066;-73
2023/01/09 12:48:06;;;;;;;;;;;;;;;7.23;100.00;97277.78;4265695;33;19956;-73
2023/01/09 12:50:39;;;;;;;;;;;;;;;7.37;100.00;97278.03;4266001;33;19942;-73
2023/01/09 12:53:10;;;;;;;;;;;;;;;7.42;100.00;97279.91;4267837;33;19952;-73
2023/01/09 12:55:39;;;;;;;;;;;;;;;7.27;100.00;97278.84;4250668;33;20261;-73
2023/01/09 12:58:11;;;;;;;;;;;;;;;7.59;100.00;97277.66;4251998;33;19964;-74
2023/01/09 13:00:41;;;;;;;;;;;;;;;7.41;100.00;97283.62;4253161;33;20283;-74
2023/01/09 13:03:14;;;;;;;;;;;;;;;7.27;100.00;97278.84;4252092;33;19968;-74
2023/01/09 13:05:46;;;;;;;;;;;;;;;7.17;100.00;97272.72;4263857;33;19952;-73
2023/01/09 13:08:16;;;;;;;;;;;;;;;7.00;100.00;97270.31;4267933;33;19954;-74
2023/01/09 13:10:45;;;;;;;;;;;;;;;7.13;100.00;97277.00;4267546;33;19941;-75
2023/01/09 13:13:19;;;;;;;;;;;;;;;6.99;100.00;97268.69;4255440;33;19941;-74
2023/01/09 13:15:48;;;;;;;;;;;;;;;6.97;100.00;97268.97;4260450;33;20254;-75
2023/01/09 13:18:26;;;;;;;;;;;;;;;6.95;100.00;97267.66;4239535;33;19964;-74
2023/01/09 13:20:55;;;;;;;;;;;;;;;7.17;100.00;97268.16;4239087;33;19951;-75
2023/01/09 13:23:29;;;;;;;;;;;;;;;7.33;100.00;97270.81;4237939;33;19942;-74
2023/01/09 13:26:00;;;;;;;;;;;;;;;7.62;100.00;97279.81;4238913;33;20327;-73
2023/01/09 13:28:41;;;;;;;;;;;;;;;7.85;100.00;97266.06;4240014;33;19948;-76
2023/01/09 13:31:20;;;;;;;;;;;;;;;7.62;100.00;97261.06;4249994;33;20272;-74
2023/01/09 13:33:51;;;;;;;;;;;;;;;7.38;100.00;97262.75;4252329;33;19938;-74
2023/01/09 13:36:38;;;;;;;;;;;;;;;7.50;100.00;97255.22;4249121;33;20409;-73
2023/01/09 13:39:04;;;;;;;;;;;;;;;7.44;100.00;97261.66;4239424;33;19950;-74
2023/01/09 13:44:21;;;;;;;;;;;;;;;7.69;100.00;97265.31;4246246;33;19963;-73
2023/01/09 13:46:53;;;;;;;;;;;;;;;7.58;100.00;97270.72;4253386;33;20011;-74
2023/01/09 13:49:27;;;;;;;;;;;;;;;7.71;100.00;97273.91;4253671;33;19982;-74
2023/01/09 13:51:55;;;;;;;;;;;;;;;7.44;100.00;97285.78;4266588;33;20004;-75
2023/01/09 13:54:40;;;;;;;;;;;;;;;7.21;100.00;97285.28;4265234;33;19949;-74
2023/01/09 13:57:19;;;;;;;;;;;;;;;7.24;100.00;97292.78;4282643;33;19995;-74
2023/01/09 13:59:47;;;;;;;;;;;;;;;7.40;100.00;97292.72;4281930;33;19957;-74
2023/01/09 14:02:32;;;;;;;;;;;;;;;7.42;100.00;97286.03;4286476;33;19976;-74
2023/01/09 14:05:00;;;;;;;;;;;;;;;7.58;100.00;97294.84;4296400;33;19952;-74
2023/01/09 14:07:32;;;;;;;;;;;;;;;7.35;100.00;97300.78;4296145;33;19958;-74
2023/01/09 14:10:01;;;;;;;;;;;;;;;7.59;100.00;97296.41;4294041;33;20320;-74
2023/01/09 14:12:29;;;;;;;;;;;;;;;7.53;100.00;97297.53;4295456;33;20083;-75
2023/01/09 14:14:57;;;;;;;;;;;;;;;7.61;100.00;97302.31;4295789;33;19959;-74
2023/01/09 14:17:34;;;;;;;;;;;;;;;7.85;100.00;97309.75;4295727;33;19956;-74
2023/01/09 14:20:03;;;;;;;;;;;;;;;7.44;100.00;97305.31;4294850;33;19953;-75
2023/01/09 14:22:31;;;;;;;;;;;;;;;7.35;100.00;97316.84;4287877;33;19962;-75
2023/01/09 14:25:04;;;;;;;;;;;;;;;7.70;100.00;97328.56;4269093;33;19949;-75
2023/01/09 14:27:49;;;;;;;;;;;;;;;7.73;100.00;97323.44;4279986;33;19965;-74
2023/01/09 14:30:35;;;;;;;;;;;;;;;7.66;100.00;97338.19;4281742;33;19953;-74
2023/01/09 14:33:17;;;;;;;;;;;;;;;7.71;100.00;97338.22;4279164;33;19967;-74
2023/01/09 14:35:58;;;;;;;;;;;;;;;7.63;100.00;97340.34;4281622;33;19961;-74
2023/01/09 14:38:25;;;;;;;;;;;;;;;7.75;100.00;97347.28;4279856;33;20044;-75
2023/01/09 14:41:10;;;;;;;;;;;;;;;7.42;100.00;97344.16;4279307;33;20001;-75
2023/01/09 14:43:47;;;;;;;;;;;;;;;7.54;100.00;97341.19;4276435;33;19953;-75
2023/01/09 14:46:15;;;;;;;;;;;;;;;7.56;100.00;97345.22;4277561;33;19968;-74
2023/01/09 14:49:00;;;;;;;;;;;;;;;7.82;100.00;97347.81;4276720;33;20019;-74
2023/01/09 14:51:28;;;;;;;;;;;;;;;7.86;100.00;97343.50;4274142;33;20276;-76
2023/01/09 14:53:56;;;;;;;;;;;;;;;7.99;100.00;97348.28;4278179;33;20003;-75
2023/01/09 14:56:27;;;;;;;;;;;;;;;8.19;100.00;97341.22;4278925;33;19937;-74
2023/01/09 14:59:10;;;;;;;;;;;;;;;8.03;100.00;97347.75;4280146;33;19967;-74
2023/01/09 15:01:38;;;;;;;;;;;;;;;7.97;100.00;97345.06;4279112;33;20323;-74
2023/01/09 15:04:09;;;;;;;;;;;;;;;7.97;100.00;97352.31;4247996;33;19967;-74
2023/01/09 15:06:39;;;;;;;;;;;;;;;7.96;100.00;97359.56;4251638;33;19974;-74
2023/01/09 15:09:05;;;;;;;;;;;;;;;7.93;100.00;97368.12;4223785;34;20340;-74
2023/01/09 15:11:32;;;;;;;;;;;;;;;8.14;100.00;97357.34;4223003;34;19962;-74
2023/01/09 15:14:05;;;;;;;;;;;;;;;8.21;100.00;97363.19;4220423;34;19954;-74
2023/01/09 15:16:31;;;;;;;;;;;;;;;8.32;100.00;97362.06;4219748;34;19962;-74
2023/01/09 15:19:00;;;;;;;;;;;;;;;8.15;100.00;97372.34;4216077;34;19946;-73
2023/01/09 15:21:30;;;;;;;;;;;;;;;8.33;100.00;97371.72;4214831;34;20247;-73
2023/01/09 15:24:20;;;;;;;;;;;;;;;8.09;100.00;97381.47;4219448;33;19966;-74